Temp: 13.0°C   Baro: 1008.5mb
  Wind: 6.9mph   Dir: W (272°)
  Rain: 6.4mm (0.0mm/hr)
  Sun: 264W/m2  Humidity: 93%

Historic data

Bath Spa Weather Station Historical Data
Daily Summary for April 13, 2024 Units:  English    Metric   Both
Daily Weekly Monthly Yearly Custom
  High: Low: Average:
Temperature: 60.6 °F 47.9 °F 53.3 °F
Dew Point: 50.8 °F 44.1 °F 48.1 °F
Humidity: 92% 67.8% 83%
Wind Speed: 15.2mph 0mph 5.1mph
Wind Gust: 23mph - -
Wind- - WSW
Pressure: 30.31 in 30.16 in -
Precipitation: 0.00 in    
Historical Graphs
 
 
Tabular Data for April 13, 2024
Time Temperature Dew Point Pressure Wind Wind Speed Wind Gust Humidity Rainfall Rate (Hourly) solar
00:09 52.1 °F 49 °F 30.31 in SW 0.2 mph 2 mph 89% 0.00 in 0 W/m2
00:14 52 °F 48.9 °F 30.31 in SW 0.9 mph 4 mph 89% 0.00 in 0 W/m2
00:19 51.9 °F 48.8 °F 30.31 in SW 0.8 mph 4 mph 89% 0.00 in 0 W/m2
00:24 51.7 °F 48.6 °F 30.31 in SW 0.4 mph 3 mph 89% 0.00 in 0 W/m2
00:29 51.6 °F 48.6 °F 30.31 in SW 0.9 mph 3 mph 89% 0.00 in 0 W/m2
00:34 51.5 °F 48.5 °F 30.31 in SW 2.1 mph 4 mph 89% 0.00 in 0 W/m2
00:39 51.4 °F 48.4 °F 30.31 in SW 1.7 mph 3 mph 89% 0.00 in 0 W/m2
00:44 51.4 °F 48.4 °F 30.31 in SW 1.5 mph 3 mph 89.2% 0.00 in 0 W/m2
00:49 51.3 °F 48.2 °F 30.31 in SW 1.3 mph 4 mph 89% 0.00 in 0 W/m2
00:54 51.3 °F 48.3 °F 30.31 in SW 1.6 mph 4 mph 89.6% 0.00 in 0 W/m2
00:59 51.1 °F 48.2 °F 30.31 in SW 2 mph 3 mph 90% 0.00 in 0 W/m2
01:04 51.1 °F 48.2 °F 30.31 in SW 0.9 mph 4 mph 90% 0.00 in 0 W/m2
01:09 50.9 °F 48 °F 30.31 in SW 0.4 mph 2 mph 90% 0.00 in 0 W/m2
01:14 50.7 °F 47.8 °F 30.31 in SW 0.9 mph 2 mph 90% 0.00 in 0 W/m2
01:19 50.6 °F 47.8 °F 30.30 in SW 1.3 mph 3 mph 90% 0.00 in 0 W/m2
01:24 50.5 °F 47.7 °F 30.30 in SW 1.3 mph 3 mph 90% 0.00 in 0 W/m2
01:29 50.5 °F 47.7 °F 30.30 in SW 0.9 mph 3 mph 90% 0.00 in 0 W/m2
01:34 50.4 °F 47.5 °F 30.30 in SW 1.2 mph 4 mph 90% 0.00 in 0 W/m2
01:39 50.4 °F 47.5 °F 30.30 in SW 1.1 mph 4 mph 90% 0.00 in 0 W/m2
01:44 50.4 °F 47.5 °F 30.30 in SW 0.5 mph 4 mph 90% 0.00 in 0 W/m2
01:49 50.4 °F 47.6 °F 30.30 in SW 1.3 mph 3 mph 90.2% 0.00 in 0 W/m2
01:54 50.4 °F 47.5 °F 30.30 in SW 1.2 mph 4 mph 90% 0.00 in 0 W/m2
01:59 50.4 °F 47.6 °F 30.30 in SW 1.7 mph 3 mph 90.2% 0.00 in 0 W/m2
02:04 50.4 °F 47.8 °F 30.29 in SW 1.3 mph 4 mph 91% 0.00 in 0 W/m2
02:09 50.4 °F 47.9 °F 30.29 in SW 0.4 mph 3 mph 91% 0.00 in 0 W/m2
02:14 50.3 °F 47.8 °F 30.29 in SW 0.4 mph 1 mph 91% 0.00 in 0 W/m2
02:19 50.1 °F 47.6 °F 30.29 in SW 0.7 mph 2 mph 91% 0.00 in 0 W/m2
02:24 50 °F 47.5 °F 30.29 in SW 0.2 mph 2 mph 91% 0.00 in 0 W/m2
02:29 49.8 °F 47.3 °F 30.29 in SW 1.1 mph 3 mph 91% 0.00 in 0 W/m2
02:34 49.9 °F 47.4 °F 30.29 in SW 1.4 mph 4 mph 91% 0.00 in 0 W/m2
02:39 50 °F 47.5 °F 30.29 in SW 1.2 mph 3 mph 91% 0.00 in 0 W/m2
02:44 50 °F 47.5 °F 30.29 in SW 0.9 mph 3 mph 91% 0.00 in 0 W/m2
02:49 49.8 °F 47.3 °F 30.29 in SW 1.5 mph 3 mph 91% 0.00 in 0 W/m2
02:54 49.6 °F 47.1 °F 30.28 in SW 2.1 mph 3 mph 91% 0.00 in 0 W/m2
02:59 49.7 °F 47.2 °F 30.28 in SW 1 mph 3 mph 91% 0.00 in 0 W/m2
03:04 49.7 °F 47.2 °F 30.28 in SW 1.4 mph 2 mph 91% 0.00 in 0 W/m2
03:09 49.6 °F 47.1 °F 30.28 in SW 1.2 mph 2 mph 91% 0.00 in 0 W/m2
03:14 49.5 °F 46.9 °F 30.28 in SW 0.9 mph 2 mph 91% 0.00 in 0 W/m2
03:19 49.4 °F 46.9 °F 30.28 in SW 1 mph 3 mph 91% 0.00 in 0 W/m2
03:24 49.5 °F 46.9 °F 30.28 in SW 2 mph 3 mph 91% 0.00 in 0 W/m2
03:29 49.5 °F 47.1 °F 30.28 in SW 1.3 mph 3 mph 91.4% 0.00 in 0 W/m2
03:34 49.6 °F 47.4 °F 30.28 in WSW 2.4 mph 4 mph 92% 0.00 in 0 W/m2
03:39 49.6 °F 47.5 °F 30.28 in WSW 1.1 mph 3 mph 91.8% 0.00 in 0 W/m2
03:44 49.8 °F 47.7 °F 30.28 in WSW 1.4 mph 3 mph 92% 0.00 in 0 W/m2
03:49 49.8 °F 47.7 °F 30.27 in WSW 1.8 mph 6 mph 92% 0.00 in 0 W/m2
03:54 50.1 °F 47.9 °F 30.27 in WSW 1.6 mph 6 mph 92% 0.00 in 0 W/m2
03:59 50.2 °F 48 °F 30.27 in West 2.9 mph 5 mph 92% 0.00 in 0 W/m2
04:04 50.2 °F 48 °F 30.27 in West 2.1 mph 5 mph 92% 0.00 in 0 W/m2
04:09 50.2 °F 48 °F 30.28 in West 1.9 mph 4 mph 92% 0.00 in 0 W/m2
04:14 50.4 °F 48.2 °F 30.27 in West 2.5 mph 5 mph 92% 0.00 in 0 W/m2
04:19 50.4 °F 48.2 °F 30.27 in West 2.6 mph 6 mph 92% 0.00 in 0 W/m2
04:24 50.4 °F 48.2 °F 30.27 in West 3.1 mph 7 mph 92% 0.00 in 0 W/m2
04:29 50.4 °F 48.2 °F 30.27 in WSW 1.7 mph 6 mph 92% 0.00 in 0 W/m2
04:34 50.4 °F 48.2 °F 30.27 in WSW 3 mph 6 mph 92% 0.00 in 0 W/m2
04:39 50.4 °F 48.3 °F 30.27 in WSW 2.4 mph 6 mph 92% 0.00 in 0 W/m2
04:44 50.5 °F 48.4 °F 30.26 in SW 2.4 mph 7 mph 92% 0.00 in 0 W/m2
04:49 50.5 °F 48.4 °F 30.26 in SW 3.8 mph 7 mph 92% 0.00 in 0 W/m2
04:54 50.7 °F 48.6 °F 30.26 in WSW 3.1 mph 7 mph 92% 0.00 in 0 W/m2
04:59 50.7 °F 48.6 °F 30.26 in SW 3.9 mph 8 mph 92% 0.00 in 0 W/m2
05:04 50.7 °F 48.6 °F 30.26 in SW 4.8 mph 8 mph 92% 0.00 in 0 W/m2
05:09 50.8 °F 48.6 °F 30.26 in SW 4.8 mph 9 mph 92% 0.00 in 0 W/m2
05:14 50.9 °F 48.6 °F 30.26 in WSW 3.4 mph 6 mph 91.8% 0.00 in 0 W/m2
05:19 50.9 °F 48.4 °F 30.26 in WSW 3.3 mph 7 mph 91% 0.00 in 0 W/m2
05:24 50.7 °F 48.2 °F 30.25 in WSW 2.9 mph 6 mph 91% 0.00 in 0 W/m2
05:29 50.7 °F 48.2 °F 30.25 in WSW 2.4 mph 6 mph 91% 0.00 in 0 W/m2
05:34 50.7 °F 48.2 °F 30.25 in WSW 3.2 mph 6 mph 91% 0.00 in 0 W/m2
05:39 50.7 °F 48.2 °F 30.25 in West 3.6 mph 6 mph 91% 0.00 in 0 W/m2
05:44 50.7 °F 48.2 °F 30.25 in WSW 1.6 mph 5 mph 91% 0.00 in 0 W/m2
05:49 50.7 °F 48.2 °F 30.25 in SW 1.3 mph 4 mph 91% 0.00 in 0 W/m2
05:54 50.7 °F 48.2 °F 30.25 in SW 1.9 mph 4 mph 91% 0.00 in 0 W/m2
05:59 50.7 °F 48.2 °F 30.25 in SW 2.6 mph 4 mph 91% 0.00 in 0 W/m2
06:04 50.5 °F 47.8 °F 30.25 in SW 2 mph 4 mph 90.2% 0.00 in 0 W/m2
06:09 50.5 °F 47.7 °F 30.25 in SW 1.6 mph 5 mph 90% 0.00 in 0 W/m2
06:14 50.5 °F 47.7 °F 30.24 in SW 1.9 mph 5 mph 90% 0.00 in 0 W/m2
06:19 50.5 °F 47.7 °F 30.24 in SW 1.5 mph 4 mph 90% 0.00 in 0 W/m2
06:24 50.5 °F 47.7 °F 30.24 in Calm   2 mph 90% 0.00 in 0 W/m2
06:29 50.5 °F 47.6 °F 30.24 in SW 1.2 mph 3 mph 90% 0.00 in 7 W/m2
06:34 50.4 °F 47.5 °F 30.24 in SW 1.2 mph 3 mph 90% 0.00 in 11 W/m2
06:39 50.4 °F 47.5 °F 30.24 in SW 0.9 mph 2 mph 90% 0.00 in 14 W/m2
06:44 50.3 °F 47.4 °F 30.24 in SW 1.3 mph 4 mph 90% 0.00 in 23 W/m2
06:49 50.3 °F 47.4 °F 30.24 in SW 2.4 mph 5 mph 90% 0.00 in 26 W/m2
06:54 50.2 °F 47.3 °F 30.24 in SW 0.8 mph 4 mph 90% 0.00 in 30 W/m2
06:59 50.2 °F 47.3 °F 30.24 in SW 1.6 mph 5 mph 90% 0.00 in 33 W/m2
07:03 50.2 °F 47.3 °F 30.24 in SW 0.5 mph 3 mph 90% 0.00 in 37 W/m2
07:09 50.2 °F 47.3 °F 30.24 in SW 1 mph 3 mph 90% 0.00 in 39 W/m2
07:14 50.2 °F 47.1 °F 30.24 in SSW 2.2 mph 5 mph 89.2% 0.00 in 53 W/m2
07:19 50.2 °F 47.1 °F 30.24 in Calm   2 mph 89% 0.00 in 63 W/m2
07:24 50.2 °F 47.1 °F 30.24 in South 1.2 mph 3 mph 89% 0.00 in 69 W/m2
07:29 50.2 °F 47.1 °F 30.24 in South 1.2 mph 4 mph 89% 0.00 in 81 W/m2
07:34 50.2 °F 47.1 °F 30.24 in South 1.2 mph 3 mph 89% 0.00 in 81 W/m2
07:39 50.2 °F 47.1 °F 30.23 in WSW 2.2 mph 5 mph 89% 0.00 in 86 W/m2
07:44 50.2 °F 47.1 °F 30.23 in SW 3.6 mph 6 mph 89% 0.00 in 105 W/m2
07:49 50.4 °F 47.3 °F 30.23 in SSW 0.9 mph 5 mph 89% 0.00 in 116 W/m2
07:54 50.4 °F 47.4 °F 30.23 in SSW 2.6 mph 4 mph 89% 0.00 in 128 W/m2
07:59 50.5 °F 47.5 °F 30.23 in SW 4.1 mph 7 mph 89% 0.00 in 134 W/m2
08:04 50.6 °F 47.6 °F 30.22 in SW 2.2 mph 7 mph 89% 0.00 in 130 W/m2
08:09 50.7 °F 47.6 °F 30.22 in SW 3.2 mph 7 mph 88.8% 0.00 in 146 W/m2
08:14 50.9 °F 47.5 °F 30.23 in South 3.6 mph 6 mph 88% 0.00 in 165 W/m2
08:19 51.1 °F 47.7 °F 30.22 in SW 4.2 mph 7 mph 88% 0.00 in 183 W/m2
08:24 51.2 °F 47.7 °F 30.22 in SW 1.1 mph 6 mph 88% 0.00 in 243 W/m2
08:29 51.4 °F 48 °F 30.22 in SW 2.9 mph 7 mph 88% 0.00 in 214 W/m2
08:34 51.4 °F 47.9 °F 30.22 in SSW 5 mph 11 mph 87.6% 0.00 in 223 W/m2
08:39 51.6 °F 47.8 °F 30.22 in SSW 4.9 mph 10 mph 87% 0.00 in 236 W/m2
08:44 51.7 °F 47.9 °F 30.22 in SW 2.9 mph 8 mph 87% 0.00 in 315 W/m2
08:49 52 °F 48.2 °F 30.22 in SW 3.4 mph 10 mph 87% 0.00 in 290 W/m2
08:54 52.2 °F 48.3 °F 30.22 in SSW 3.3 mph 8 mph 86.6% 0.00 in 234 W/m2
08:59 52.4 °F 48.3 °F 30.22 in SW 5.3 mph 10 mph 86% 0.00 in 315 W/m2
09:04 52.7 °F 48.6 °F 30.22 in SSW 3.7 mph 9 mph 86% 0.00 in 318 W/m2
09:09 53 °F 48.7 °F 30.22 in SSW 3.3 mph 10 mph 85.2% 0.00 in 323 W/m2
09:14 53.3 °F 48.9 °F 30.22 in SW 4.6 mph 11 mph 84.8% 0.00 in 415 W/m2
09:19 53.6 °F 48.9 °F 30.22 in SSW 5.6 mph 9 mph 84% 0.00 in 422 W/m2
09:24 53.8 °F 48.8 °F 30.22 in South 5.3 mph 11 mph 83.2% 0.00 in 417 W/m2
09:29 54.1 °F 48.8 °F 30.22 in SSW 6.3 mph 12 mph 82.4% 0.00 in 438 W/m2
09:34 54.1 °F 48.5 °F 30.22 in SSW 4.3 mph 11 mph 81.4% 0.00 in 378 W/m2
09:39 54.7 °F 48.9 °F 30.22 in SSW 3.5 mph 7 mph 81% 0.00 in 492 W/m2
09:44 55 °F 49.2 °F 30.22 in WSW 6.4 mph 11 mph 80.8% 0.00 in 524 W/m2
09:49 55.1 °F 49 °F 30.22 in WSW 6.8 mph 11 mph 80% 0.00 in 547 W/m2
09:54 55.1 °F 48.6 °F 30.22 in SW 9.4 mph 13 mph 78.6% 0.00 in 478 W/m2
09:59 55.3 °F 48.8 °F 30.22 in SSW 5.8 mph 10 mph 78.4% 0.00 in 471 W/m2
10:04 55.8 °F 49 °F 30.22 in SW 5.5 mph 12 mph 78% 0.00 in 524 W/m2
10:09 55.9 °F 48.9 °F 30.22 in SSW 5.2 mph 12 mph 77.2% 0.00 in 533 W/m2
10:14 56.1 °F 48.9 °F 30.22 in West 7.7 mph 14 mph 77% 0.00 in 536 W/m2
10:19 56 °F 48.6 °F 30.22 in SW 7.6 mph 14 mph 76% 0.00 in 499 W/m2
10:24 56.1 °F 48.7 °F 30.22 in SW 6.8 mph 13 mph 76% 0.00 in 533 W/m2
10:29 56.6 °F 49.1 °F 30.21 in SW 5.4 mph 13 mph 76% 0.00 in 541 W/m2
10:34 56.8 °F 49 °F 30.21 in SW 8 mph 13 mph 75.2% 0.00 in 550 W/m2
10:39 57.1 °F 49.1 °F 30.21 in WSW 6.2 mph 14 mph 74.6% 0.00 in 570 W/m2
10:44 57.1 °F 48.5 °F 30.21 in SW 7.4 mph 14 mph 73% 0.00 in 536 W/m2
10:49 56.9 °F 48.2 °F 30.21 in SSW 6 mph 13 mph 72.6% 0.00 in 554 W/m2
10:54 56.9 °F 48 °F 30.21 in SW 7.1 mph 13 mph 72.2% 0.00 in 585 W/m2
10:59 57.1 °F 48.5 °F 30.21 in SW 5.4 mph 12 mph 73% 0.00 in 573 W/m2
11:04 57.2 °F 48.4 °F 30.21 in SSW 6.8 mph 13 mph 72.4% 0.00 in 554 W/m2
11:09 57.1 °F 48.6 °F 30.21 in SSW 6.8 mph 11 mph 73.2% 0.00 in 598 W/m2
11:14 57.5 °F 48.9 °F 30.21 in SW 5.1 mph 11 mph 73.2% 0.00 in 617 W/m2
11:19 57.7 °F 48.9 °F 30.21 in SSW 8.8 mph 12 mph 72.6% 0.00 in 647 W/m2
11:24 57.6 °F 48.6 °F 30.21 in SW 8.6 mph 14 mph 72% 0.00 in 640 W/m2
11:29 57.7 °F 48.7 °F 30.21 in SW 6.3 mph 12 mph 72% 0.00 in 610 W/m2
11:34 57.8 °F 48.8 °F 30.21 in SW 7.7 mph 11 mph 72% 0.00 in 654 W/m2
11:39 58.3 °F 48.9 °F 30.21 in SW 6 mph 10 mph 71.2% 0.00 in 663 W/m2
11:44 58.5 °F 49.2 °F 30.20 in SW 6.7 mph 11 mph 71% 0.00 in 649 W/m2
11:49 58.6 °F 49 °F 30.20 in SW 6.2 mph 11 mph 70.2% 0.00 in 717 W/m2
11:54 59.1 °F 49.4 °F 30.20 in WSW 6.3 mph 11 mph 70% 0.00 in 645 W/m2
11:59 59.2 °F 49.4 °F 30.20 in SSW 5.8 mph 11 mph 69.8% 0.00 in 671 W/m2
12:04 59.6 °F 49.5 °F 30.19 in SW 6.6 mph 8 mph 69.2% 0.00 in 737 W/m2
12:09 59.8 °F 49.6 °F 30.19 in SW 6.4 mph 12 mph 69% 0.00 in 615 W/m2
12:14 59.8 °F 49.3 °F 30.19 in SW 4.1 mph 12 mph 68.4% 0.00 in 626 W/m2
12:19 59.9 °F 49.4 °F 30.19 in SW 7.8 mph 11 mph 68.4% 0.00 in 664 W/m2
12:24 59.6 °F 49 °F 30.19 in SW 6.3 mph 13 mph 68% 0.00 in 663 W/m2
12:29 59.6 °F 48.9 °F 30.19 in SW 5.4 mph 10 mph 67.8% 0.00 in 670 W/m2
12:34 60 °F 49.6 °F 30.19 in SW 7.2 mph 12 mph 68.6% 0.00 in 640 W/m2
12:39 59.9 °F 50.2 °F 30.19 in West 7.1 mph 14 mph 70.4% 0.00 in 643 W/m2
12:44 59.3 °F 50.3 °F 30.19 in West 5.8 mph 12 mph 71.8% 0.00 in 673 W/m2
12:49 59.5 °F 50.5 °F 30.19 in West 7.2 mph 12 mph 72% 0.00 in 649 W/m2
12:54 58.8 °F 49.8 °F 30.19 in West 7.4 mph 14 mph 72% 0.00 in 606 W/m2
12:59 58.6 °F 49.4 °F 30.19 in West 6.2 mph 12 mph 71.6% 0.00 in 624 W/m2
13:04 58.5 °F 49.3 °F 30.19 in West 8.8 mph 15 mph 71.4% 0.00 in 622 W/m2
13:09 57.9 °F 48.9 °F 30.19 in West 6.4 mph 15 mph 72% 0.00 in 705 W/m2
13:14 57.8 °F 49.1 °F 30.20 in West 6 mph 14 mph 72.6% 0.00 in 522 W/m2
13:19 57.7 °F 49 °F 30.20 in WNW 6.9 mph 15 mph 73% 0.00 in 726 W/m2
13:24 58.2 °F 49.4 °F 30.20 in WSW 6.6 mph 14 mph 72.4% 0.00 in 640 W/m2
13:29 58.4 °F 49.4 °F 30.19 in West 4.6 mph 13 mph 72% 0.00 in 499 W/m2
13:34 58 °F 48.8 °F 30.19 in WSW 8.8 mph 13 mph 71.4% 0.00 in 499 W/m2
13:39 58 °F 49 °F 30.19 in WSW 5 mph 11 mph 72% 0.00 in 768 W/m2
13:44 58.6 °F 49.5 °F 30.19 in WSW 7 mph 15 mph 71.6% 0.00 in 782 W/m2
13:49 58.5 °F 49.2 °F 30.19 in West 7.4 mph 15 mph 71% 0.00 in 717 W/m2
13:54 58.5 °F 49.1 °F 30.19 in West 4.9 mph 12 mph 71% 0.00 in 693 W/m2
13:59 58.4 °F 49.2 °F 30.18 in SW 4.5 mph 12 mph 71.6% 0.00 in 661 W/m2
14:04 59.4 °F 50.1 °F 30.18 in SW 6 mph 10 mph 71% 0.00 in 761 W/m2
14:09 59.9 °F 50.1 °F 30.18 in West 5.4 mph 12 mph 69.8% 0.00 in 682 W/m2
14:14 59.7 °F 49.9 °F 30.18 in WSW 5.4 mph 11 mph 69.8% 0.00 in 700 W/m2
14:19 60.2 °F 49.9 °F 30.18 in West 6.6 mph 13 mph 69% 0.00 in 770 W/m2
14:24 60.2 °F 49.9 °F 30.18 in West 8.4 mph 13 mph 69% 0.00 in 773 W/m2
14:29 60.2 °F 49.9 °F 30.18 in West 7.6 mph 12 mph 69% 0.00 in 626 W/m2
14:34 59.4 °F 49.3 °F 30.18 in West 5.3 mph 12 mph 69.2% 0.00 in 559 W/m2
14:39 58.9 °F 49.2 °F 30.18 in West 7.8 mph 12 mph 70% 0.00 in 499 W/m2
14:44 59.1 °F 49.7 °F 30.17 in WSW 5.3 mph 13 mph 71% 0.00 in 445 W/m2
14:49 59.5 °F 49.8 °F 30.17 in WSW 5.7 mph 15 mph 70.2% 0.00 in 425 W/m2
14:54 59.4 °F 49.6 °F 30.17 in West 6.3 mph 11 mph 70% 0.00 in 429 W/m2
14:59 59.2 °F 49.8 °F 30.16 in West 5.3 mph 10 mph 71% 0.00 in 749 W/m2
15:04 59.7 °F 50.4 °F 30.16 in West 4.4 mph 8 mph 71% 0.00 in 733 W/m2
15:09 60.5 °F 50.8 °F 30.16 in West 4.5 mph 9 mph 70.4% 0.00 in 622 W/m2
15:14 60.6 °F 50.7 °F 30.16 in WSW 5 mph 10 mph 70% 0.00 in 621 W/m2
15:19 60.3 °F 50.5 °F 30.16 in West 6.2 mph 11 mph 70.2% 0.00 in 330 W/m2
15:24 59.7 °F 50.4 °F 30.16 in West 8 mph 12 mph 71% 0.00 in 276 W/m2
15:29 59.2 °F 50.1 °F 30.16 in WNW 6 mph 12 mph 71.8% 0.00 in 285 W/m2
15:34 58.8 °F 49.8 °F 30.17 in West 8.6 mph 12 mph 72.2% 0.00 in 244 W/m2
15:39 58.3 °F 49.6 °F 30.17 in West 7.8 mph 14 mph 73% 0.00 in 243 W/m2
15:44 57.9 °F 49.6 °F 30.17 in WNW 9.6 mph 15 mph 73.8% 0.00 in 199 W/m2
15:49 57.6 °F 49.3 °F 30.17 in West 7.4 mph 15 mph 74% 0.00 in 213 W/m2
15:54 57.3 °F 49.2 °F 30.17 in West 7.8 mph 14 mph 74.6% 0.00 in 202 W/m2
15:59 57 °F 49.1 °F 30.17 in West 7.5 mph 14 mph 75% 0.00 in 206 W/m2
16:04 56.9 °F 49 °F 30.17 in West 7.2 mph 15 mph 75% 0.00 in 227 W/m2
16:09 56.9 °F 49.3 °F 30.17 in West 5.8 mph 13 mph 75.6% 0.00 in 169 W/m2
16:14 57 °F 49.5 °F 30.17 in West 8.1 mph 13 mph 76% 0.00 in 244 W/m2
16:19 56.9 °F 49.4 °F 30.17 in WNW 6.7 mph 13 mph 76% 0.00 in 271 W/m2
16:23 57 °F 49.5 °F 30.17 in WNW 5.2 mph 12 mph 76% 0.00 in 183 W/m2
16:29 56.9 °F 49.7 °F 30.17 in West 8 mph 14 mph 77% 0.00 in 169 W/m2
16:34 56.8 °F 49.6 °F 30.17 in West 8 mph 13 mph 77% 0.00 in 128 W/m2
16:39 56.6 °F 49.4 °F 30.17 in West 10 mph 20 mph 77% 0.00 in 95 W/m2
16:44 56.1 °F 48.9 °F 30.18 in West 7.9 mph 15 mph 77% 0.00 in 67 W/m2
16:49 55.9 °F 49.1 °F 30.18 in West 11.2 mph 19 mph 78% 0.00 in 79 W/m2
16:54 55.7 °F 48.9 °F 30.18 in West 7.5 mph 19 mph 78% 0.00 in 76 W/m2
16:59 55.5 °F 48.8 °F 30.19 in West 10.5 mph 19 mph 78% 0.00 in 74 W/m2
17:04 55.2 °F 48.7 °F 30.19 in West 8.6 mph 19 mph 79% 0.00 in 97 W/m2
17:09 55.2 °F 48.9 °F 30.19 in West 10.8 mph 19 mph 79.6% 0.00 in 95 W/m2
17:14 55 °F 49 °F 30.19 in West 9 mph 16 mph 80.4% 0.00 in 49 W/m2
17:19 54.9 °F 49.1 °F 30.19 in West 9 mph 15 mph 81% 0.00 in 67 W/m2
17:24 54.8 °F 49.1 °F 30.19 in West 11.7 mph 21 mph 81.4% 0.00 in 67 W/m2
17:29 54.2 °F 49 °F 30.19 in West 10.6 mph 21 mph 82.6% 0.00 in 130 W/m2
17:34 54 °F 49.2 °F 30.19 in West 9.4 mph 16 mph 83.8% 0.00 in 142 W/m2
17:39 53.9 °F 49.3 °F 30.19 in WSW 7.8 mph 23 mph 84.4% 0.00 in 113 W/m2
17:44 53.8 °F 49.5 °F 30.19 in West 10.4 mph 21 mph 85% 0.00 in 76 W/m2
17:49 53.7 °F 49.4 °F 30.19 in West 10.1 mph 18 mph 85% 0.00 in 130 W/m2
17:54 53.8 °F 49.5 °F 30.19 in West 10.4 mph 18 mph 85% 0.00 in 116 W/m2
17:59 53.8 °F 49.5 °F 30.19 in West 10.1 mph 17 mph 85.2% 0.00 in 93 W/m2
18:04 53.8 °F 49.5 °F 30.19 in West 9.2 mph 16 mph 85.4% 0.00 in 84 W/m2
18:09 53.8 °F 49.5 °F 30.18 in West 9.4 mph 16 mph 85% 0.00 in 74 W/m2
18:14 53.8 °F 49.5 °F 30.19 in WNW 8.4 mph 16 mph 85% 0.00 in 90 W/m2
18:19 53.8 °F 49.5 °F 30.19 in West 8.4 mph 17 mph 85% 0.00 in 104 W/m2
18:24 53.8 °F 49.5 °F 30.19 in West 15.2 mph 22 mph 85% 0.00 in 225 W/m2
18:29 53.8 °F 49.3 °F 30.19 in West 10.2 mph 19 mph 84.4% 0.00 in 183 W/m2
18:34 53.9 °F 49.2 °F 30.19 in West 10.6 mph 18 mph 84% 0.00 in 123 W/m2
18:39 53.9 °F 49 °F 30.19 in West 7 mph 14 mph 83.6% 0.00 in 91 W/m2
18:44 53.8 °F 48.7 °F 30.19 in West 8.6 mph 12 mph 83% 0.00 in 69 W/m2
18:49 53.6 °F 48.6 °F 30.19 in West 12.4 mph 20 mph 83% 0.00 in 77 W/m2
18:54 53.7 °F 48.6 °F 30.19 in West 9.6 mph 15 mph 83% 0.00 in 146 W/m2
18:59 53.8 °F 48.7 °F 30.19 in West 8.2 mph 16 mph 83% 0.00 in 144 W/m2
19:04 53.8 °F 48.6 °F 30.19 in West 9.3 mph 18 mph 82.6% 0.00 in 113 W/m2
19:09 53.5 °F 48.1 °F 30.19 in West 9.2 mph 14 mph 82% 0.00 in 69 W/m2
19:14 53.2 °F 47.8 °F 30.18 in West 6.6 mph 12 mph 82% 0.00 in 49 W/m2
19:19 53.2 °F 47.8 °F 30.18 in West 6.6 mph 13 mph 82% 0.00 in 49 W/m2
19:24 53 °F 47.6 °F 30.19 in West 7.8 mph 15 mph 82% 0.00 in 39 W/m2
19:29 52.9 °F 47.5 °F 30.19 in West 7.2 mph 15 mph 82% 0.00 in 33 W/m2
19:34 52.6 °F 47.2 °F 30.19 in West 9.6 mph 16 mph 82% 0.00 in 25 W/m2
19:39 52.5 °F 47.1 °F 30.19 in West 8.6 mph 16 mph 82% 0.00 in 16 W/m2
19:44 52.5 °F 47.1 °F 30.19 in West 10.4 mph 18 mph 82% 0.00 in 12 W/m2
19:49 52.5 °F 47.1 °F 30.19 in West 6.8 mph 14 mph 82% 0.00 in 11 W/m2
19:54 52.5 °F 47.1 °F 30.20 in WNW 6.6 mph 14 mph 82% 0.00 in 5 W/m2
19:59 52.5 °F 47.1 °F 30.20 in WNW 7.6 mph 14 mph 82% 0.00 in 0 W/m2
20:04 52.3 °F 46.9 °F 30.20 in West 8 mph 15 mph 82% 0.00 in 0 W/m2
20:09 52.3 °F 47.2 °F 30.20 in West 10.4 mph 18 mph 82.8% 0.00 in 0 W/m2
20:14 52.2 °F 47.1 °F 30.20 in WNW 9.9 mph 22 mph 83% 0.00 in 0 W/m2
20:19 52.1 °F 47 °F 30.21 in West 10.5 mph 19 mph 83% 0.00 in 0 W/m2
20:24 52 °F 46.9 °F 30.21 in West 10.7 mph 20 mph 83% 0.00 in 0 W/m2
20:29 51.9 °F 46.8 °F 30.21 in West 10.4 mph 18 mph 83% 0.00 in 0 W/m2
20:34 51.7 °F 46.7 °F 30.21 in West 9 mph 20 mph 83% 0.00 in 0 W/m2
20:39 51.6 °F 46.6 °F 30.21 in West 10.8 mph 19 mph 83% 0.00 in 0 W/m2
20:44 51.6 °F 46.6 °F 30.21 in West 11.6 mph 19 mph 83% 0.00 in 0 W/m2
20:49 51.4 °F 46.6 °F 30.21 in West 10.4 mph 19 mph 83.6% 0.00 in 0 W/m2
20:54 51.4 °F 46.8 °F 30.21 in West 8.4 mph 18 mph 84% 0.00 in 0 W/m2
20:59 51.4 °F 46.8 °F 30.21 in WSW 8.2 mph 15 mph 84% 0.00 in 0 W/m2
21:04 51.4 °F 46.8 °F 30.21 in WSW 9.2 mph 18 mph 84% 0.00 in 0 W/m2
21:09 51.4 °F 46.8 °F 30.21 in West 7.6 mph 14 mph 84% 0.00 in 0 W/m2
21:14 51.4 °F 46.8 °F 30.21 in West 7 mph 16 mph 84% 0.00 in 0 W/m2
21:19 51.3 °F 46.6 °F 30.21 in West 6.4 mph 13 mph 84% 0.00 in 0 W/m2
21:24 51.3 °F 46.6 °F 30.21 in West 6.2 mph 13 mph 84% 0.00 in 0 W/m2
21:29 51.1 °F 46.6 °F 30.21 in WSW 6.6 mph 14 mph 84.4% 0.00 in 0 W/m2
21:34 50.9 °F 46.6 °F 30.22 in West 9.3 mph 16 mph 85% 0.00 in 0 W/m2
21:39 50.7 °F 46.4 °F 30.22 in West 7.4 mph 16 mph 85% 0.00 in 0 W/m2
21:44 50.7 °F 46.4 °F 30.23 in West 7.7 mph 14 mph 85% 0.00 in 0 W/m2
21:49 50.7 °F 46.4 °F 30.23 in West 7.6 mph 14 mph 85% 0.00 in 0 W/m2
21:54 50.7 °F 46.4 °F 30.23 in West 7.2 mph 12 mph 85% 0.00 in 0 W/m2
21:59 50.5 °F 46.2 °F 30.23 in West 3.7 mph 12 mph 85% 0.00 in 0 W/m2
22:04 50.4 °F 46.4 °F 30.23 in West 6.2 mph 14 mph 85.8% 0.00 in 0 W/m2
22:09 50.4 °F 46.3 °F 30.23 in West 4.5 mph 14 mph 85.8% 0.00 in 0 W/m2
22:14 50.4 °F 46.3 °F 30.23 in WSW 3.3 mph 8 mph 85.8% 0.00 in 0 W/m2
22:19 50.2 °F 46.2 °F 30.24 in WSW 2.5 mph 8 mph 86% 0.00 in 0 W/m2
22:24 50.2 °F 46.1 °F 30.24 in SW 2.6 mph 5 mph 85.8% 0.00 in 0 W/m2
22:29 50.2 °F 46.2 °F 30.24 in SW 2.3 mph 5 mph 86% 0.00 in 0 W/m2
22:34 50.1 °F 46.1 °F 30.24 in West 3.9 mph 8 mph 86% 0.00 in 0 W/m2
22:39 50 °F 46 °F 30.24 in West 2.1 mph 5 mph 86% 0.00 in 0 W/m2
22:44 49.8 °F 45.9 °F 30.24 in West 3.7 mph 9 mph 86% 0.00 in 0 W/m2
22:49 49.6 °F 45.7 °F 30.24 in West 4.3 mph 9 mph 86% 0.00 in 0 W/m2
22:54 49.6 °F 45.6 °F 30.24 in West 3.6 mph 8 mph 86% 0.00 in 0 W/m2
22:59 49.5 °F 45.5 °F 30.24 in West 4.7 mph 9 mph 86% 0.00 in 0 W/m2
23:04 49.3 °F 45.3 °F 30.25 in West 5.1 mph 9 mph 86% 0.00 in 0 W/m2
23:09 49 °F 45.1 °F 30.24 in West 6.6 mph 11 mph 86% 0.00 in 0 W/m2
23:14 48.9 °F 45 °F 30.24 in West 5.3 mph 9 mph 86% 0.00 in 0 W/m2
23:19 48.7 °F 44.8 °F 30.25 in West 3.9 mph 9 mph 86% 0.00 in 0 W/m2
23:24 48.6 °F 44.7 °F 30.25 in West 5.3 mph 9 mph 86% 0.00 in 0 W/m2
23:29 48.5 °F 44.5 °F 30.25 in West 4.8 mph 8 mph 86% 0.00 in 0 W/m2
23:34 48.4 °F 44.4 °F 30.25 in West 3.7 mph 9 mph 86% 0.00 in 0 W/m2
23:39 48.4 °F 44.4 °F 30.25 in West 3.9 mph 7 mph 86% 0.00 in 0 W/m2
23:44 48.2 °F 44.2 °F 30.25 in West 3.7 mph 7 mph 86% 0.00 in 0 W/m2
23:49 48 °F 44.1 °F 30.25 in West 3.9 mph 7 mph 86% 0.00 in 0 W/m2
23:54 48 °F 44.3 °F 30.25 in WNW 3.3 mph 7 mph 86.8% 0.00 in 0 W/m2
23:59 47.9 °F 44.3 °F 30.25 in WNW 1.9 mph 6 mph 87% 0.00 in 0 W/m2
Bath Spa Weather
Compliments of Weather Underground - 2 mb